航空気象通報

ウインドサーファーのための航空気象通報による風予報です。

5/5-5/7の航空気象通報

2017年05月06日 00時42分20秒 | TAF
羽田空港
TAF AMD RJTT 051435Z 0514/0618 19010KT 8000 SCT010
TEMPO 0514/0519 FEW003 BKN005
BECMG 0600/0603 19022KT
TEMPO 0603/0609 20026G36KT
BECMG 0609/0612 20010KT
BECMG 0615/0618 36008KT
日本時間5日21時-6日09時:190度から10ノットの風
09-12時:風が変化
12-18時:190度から22ノットの風
但し、6日12-18時の間:ときどき200度から26ノット、突風36ノット
18-21時:風が変化
21-24時:200度から10ノットの風
7日00-03時:風が変化
03時:360度から8ノットの風

但し、5日23時-6日04時の間:ときどき

静岡空港
TAF RJNS 051107Z 0512/0618 25008KT 9999 FEW010 SCT020
TEMPO 0516/0520 4000 BR FEW004 BKN008
TEMPO 0609/0612 4000 -SHRA BR FEW005 BKN008
BECMG 0612/0615 27018KT
日本時間5日21時-6日21時:250度から8ノットの風
21-24時:風が変化
7日00-03時:270度から18ノットの風

但し、6日01-05時の間:ときどき
但し、6日18-21時の間:ときどき

福岡空港
TAF RJFF 051105Z 0512/0618 15006KT 8000 -SHRA FEW010 SCT020 BKN040
TEMPO 0514/0517 4000 -SHRA BR
BECMG 0517/0519 31008KT
TEMPO 0517/0521 3000 -SHRA BR FEW005 BKN008 BKN015
TEMPO 0521/0600 3000 SHRA BR FEW005 BKN008 BKN010
日本時間5日21時-6日02時:150度から6ノットの風
02-04時:風が変化
04時-7日03時:310度から8ノットの風


那覇空港
TAF AMD ROAH 051449Z 0514/0618 19007KT 9999 FEW004 SCT010
TEMPO 0514/0516 FEW003 BKN005 FEW015CB
TEMPO 0516/0600 4000 TSRA FEW003 BKN005 FEW015CB
TEMPO 0600/0606 FEW004 BKN008 FEW015CB
BECMG 0609/0612 02008KT
TEMPO 0609/0612 4000 SHRA FEW005 BKN008 FEW020CB
日本時間5日23時-6日18時:190度から7ノットの風
18-21時:風が変化
21時-7日03時:020度から8ノットの風

但し、5日23時-6日01時の間:ときどき
但し、6日01-09時の間:ときどき
但し、6日18-21時の間:ときどき

石垣空港
TAF ROIG 051111Z 0512/0618 17006KT 9999 SCT004 SCT010
TEMPO 0512/0518 FEW003 BKN006
TEMPO 0518/0600 3000 BR SCT002 BKN005
TEMPO 0600/0606 SCT004 BKN008
日本時間5日21時-7日03時:200度から6ノットの風

但し、5日21時-6日15時の間:ときどき

マウイのカフルイ空港
PHOG 051120Z 0512/0612 05010KT P6SM VCSH FEW025 SCT050
FM052100 06015G25KT P6SM FEW025 SCT050
FM060500 06012G20KT P6SM FEW025 SCT045 AMD LTD TO VIS AND WIND TIL 051600
ハワイ時間5日02-11時:050度から10ノットの風
11-19時:060度から15ノット、突風25ノット
19時-6日02時:060度から12ノット、突風20ノット


サイパン空港
TAF PGSN 051123Z 0512/0612 08014KT P6SM VCSH SCT018 SCT040
マリアナ時間5日22時-6日22時:080度から14ノットの風

ジャンル:
お天気
コメント   この記事についてブログを書く
この記事をはてなブックマークに追加
« 5/4-5/6の航空気象通報 | トップ | 5/6-5/8の航空気象通報 »
最近の画像もっと見る

コメントを投稿

ブログ作成者から承認されるまでコメントは反映されません。

コメント利用規約に同意の上コメント投稿を行ってください。

数字4桁を入力し、投稿ボタンを押してください。

あわせて読む

トラックバック

この記事のトラックバック  Ping-URL
ブログ作成者から承認されるまでトラックバックは反映されません。
  • 30日以上前の記事に対するトラックバックは受け取らないよう設定されております。
  • 送信元の記事内容が半角英数のみのトラックバックは受け取らないよう設定されております。
  • このブログへのリンクがない記事からのトラックバックは受け取らないよう設定されております。
  • ※ブログ管理者のみ、編集画面で設定の変更が可能です。